Home > Products > Valid Products > TAF

000
FTUS43 KDDC 031735
TAFHYS
TAF
KHYS 031735Z 0318/0418 03009KT P6SM SCT035
     FM040300 12006KT P6SM BKN080
     FM041600 15013G21KT P6SM SCT120=



000
FTUS43 KDDC 031735
TAFGCK
TAF
KGCK 031735Z 0318/0418 07010KT P6SM SCT060
     FM032200 13010KT P6SM SCT120
     FM041600 15015G23KT P6SM SCT040=



000
FTUS43 KDDC 031735
TAFDDC
TAF
KDDC 031735Z 0318/0418 04010KT P6SM SCT060
     FM040000 09007KT P6SM SCT120
     FM040900 14010KT P6SM SCT120
     FM041600 15015G23KT P6SM SCT040=



000
FTUS43 KDDC 031735
TAFHYS
TAF
KHYS 031735Z 0318/0418 03009KT P6SM SCT035
     FM040300 12006KT P6SM BKN080
     FM041600 15013G21KT P6SM SCT120=



000
FTUS43 KDDC 031735
TAFGCK
TAF
KGCK 031735Z 0318/0418 07010KT P6SM SCT060
     FM032200 13010KT P6SM SCT120
     FM041600 15015G23KT P6SM SCT040=



000
FTUS43 KDDC 031735
TAFDDC
TAF
KDDC 031735Z 0318/0418 04010KT P6SM SCT060
     FM040000 09007KT P6SM SCT120
     FM040900 14010KT P6SM SCT120
     FM041600 15015G23KT P6SM SCT040=



000
FTUS43 KDDC 031735
TAFHYS
TAF
KHYS 031735Z 0318/0418 03009KT P6SM SCT035
     FM040300 12006KT P6SM BKN080
     FM041600 15013G21KT P6SM SCT120=



000
FTUS43 KDDC 031735
TAFGCK
TAF
KGCK 031735Z 0318/0418 07010KT P6SM SCT060
     FM032200 13010KT P6SM SCT120
     FM041600 15015G23KT P6SM SCT040=



000
FTUS43 KDDC 031735
TAFDDC
TAF
KDDC 031735Z 0318/0418 04010KT P6SM SCT060
     FM040000 09007KT P6SM SCT120
     FM040900 14010KT P6SM SCT120
     FM041600 15015G23KT P6SM SCT040=



000
FTUS43 KDDC 031529 AAB
TAFHYS
TAF AMD
KHYS 031529Z 0315/0412 03009KT P6SM SCT020
     FM040300 12006KT P6SM BKN080=



000
FTUS43 KDDC 031529 AAB
TAFHYS
TAF AMD
KHYS 031529Z 0315/0412 03009KT P6SM SCT020
     FM040300 12006KT P6SM BKN080=



000
FTUS43 KDDC 031245 AAA
TAFHYS
TAF AMD
KHYS 031245Z 0313/0412 02007KT 4SM BR BKN006
     FM031600 08010KT P6SM BKN080=



000
FTUS43 KDDC 031245 AAA
TAFHYS
TAF AMD
KHYS 031245Z 0313/0412 02007KT 4SM BR BKN006
     FM031600 08010KT P6SM BKN080=



000
FTUS43 KDDC 031245 AAA
TAFHYS
TAF AMD
KHYS 031245Z 0313/0412 02007KT 4SM BR BKN006
     FM031600 08010KT P6SM BKN080=



000
FTUS43 KDDC 031245 AAA
TAFHYS
TAF AMD
KHYS 031245Z 0313/0412 02007KT 4SM BR BKN006
     FM031600 08010KT P6SM BKN080=



000
FTUS43 KDDC 031120
TAFGCK
TAF
KGCK 031120Z 0312/0412 VRB05KT P6SM SCT060
     FM031800 08010KT P6SM BKN080=



000
FTUS43 KDDC 031120
TAFDDC
TAF
KDDC 031120Z 0312/0412 VRB05KT P6SM SCT060
     FM031800 08010KT P6SM BKN080=



000
FTUS43 KDDC 031120
TAFGCK
TAF
KGCK 031120Z 0312/0412 VRB05KT P6SM SCT060
     FM031800 08010KT P6SM BKN080=



000
FTUS43 KDDC 031120
TAFGCK
TAF
KGCK 031120Z 0312/0412 VRB05KT P6SM SCT060
     FM031800 08010KT P6SM BKN080=



000
FTUS43 KDDC 031120
TAFDDC
TAF
KDDC 031120Z 0312/0412 VRB05KT P6SM SCT060
     FM031800 08010KT P6SM BKN080=



000
FTUS43 KDDC 031120
TAFGCK
TAF
KGCK 031120Z 0312/0412 VRB05KT P6SM SCT060
     FM031800 08010KT P6SM BKN080=



000
FTUS43 KDDC 031120
TAFHYS
TAF
KHYS 031120Z 0312/0412 VRB05KT P6SM BKN009
     FM031600 08010KT P6SM BKN080=



000
FTUS43 KDDC 031120
TAFDDC
TAF
KDDC 031120Z 0312/0412 VRB05KT P6SM SCT060
     FM031800 08010KT P6SM BKN080=



000
FTUS43 KDDC 031120
TAFHYS
TAF
KHYS 031120Z 0312/0412 VRB05KT P6SM BKN009
     FM031600 08010KT P6SM BKN080=



000
FTUS43 KDDC 031120
TAFDDC
TAF
KDDC 031120Z 0312/0412 VRB05KT P6SM SCT060
     FM031800 08010KT P6SM BKN080=



000
FTUS43 KDDC 031120 CCA
TAFHYS
TAF COR
KHYS 031120Z 0312/0412 VRB05KT 3SM BR BKN009
     FM031600 08010KT P6SM BKN080=



000
FTUS43 KDDC 031120
TAFHYS
TAF
KHYS 031120Z 0312/0412 VRB05KT P6SM BKN009
     FM031600 08010KT P6SM BKN080=



000
FTUS43 KDDC 031120
TAFHYS
TAF
KHYS 031120Z 0312/0412 VRB05KT P6SM BKN009
     FM031600 08010KT P6SM BKN080=



000
FTUS43 KDDC 031120 CCA
TAFHYS
TAF COR
KHYS 031120Z 0312/0412 VRB05KT 3SM BR BKN009
     FM031600 08010KT P6SM BKN080=



000
FTUS43 KDDC 031120 CCA
TAFHYS
TAF COR
KHYS 031120Z 0312/0412 VRB05KT 3SM BR BKN009
     FM031600 08010KT P6SM BKN080=



000
FTUS43 KDDC 030520
TAFDDC
TAF
KDDC 030520Z 0306/0406 VRB06KT P6SM SCT120=



000
FTUS43 KDDC 030520
TAFGCK
TAF
KGCK 030520Z 0306/0406 VRB06KT P6SM BKN120=



000
FTUS43 KDDC 030520
TAFGCK
TAF
KGCK 030520Z 0306/0406 VRB06KT P6SM BKN120=



000
FTUS43 KDDC 030520
TAFGCK
TAF
KGCK 030520Z 0306/0406 VRB06KT P6SM BKN120=



000
FTUS43 KDDC 030520
TAFDDC
TAF
KDDC 030520Z 0306/0406 VRB06KT P6SM SCT120=



000
FTUS43 KDDC 030520
TAFHYS
TAF
KHYS 030520Z 0306/0406 VRB06KT P6SM SCT120=



000
FTUS43 KDDC 030520
TAFHYS
TAF
KHYS 030520Z 0306/0406 VRB06KT P6SM SCT120=



000
FTUS43 KDDC 030520
TAFDDC
TAF
KDDC 030520Z 0306/0406 VRB06KT P6SM SCT120=



000
FTUS43 KDDC 030520
TAFHYS
TAF
KHYS 030520Z 0306/0406 VRB06KT P6SM SCT120=



000
FTUS43 KDDC 030520
TAFDDC
TAF
KDDC 030520Z 0306/0406 VRB06KT P6SM SCT120=



000
FTUS43 KDDC 030520
TAFGCK
TAF
KGCK 030520Z 0306/0406 VRB06KT P6SM BKN120=



000
FTUS43 KDDC 030520
TAFHYS
TAF
KHYS 030520Z 0306/0406 VRB06KT P6SM SCT120=



000
FTUS43 KDDC 022320
TAFHYS
TAF
KHYS 022320Z 0300/0324 VRB06KT P6SM SCT120=



000
FTUS43 KDDC 022320
TAFDDC
TAF
KDDC 022320Z 0300/0324 VRB06KT P6SM SCT120=



000
FTUS43 KDDC 022320
TAFGCK
TAF
KGCK 022320Z 0300/0324 VRB06KT P6SM BKN120=



000
FTUS43 KDDC 022320
TAFGCK
TAF
KGCK 022320Z 0300/0324 VRB06KT P6SM BKN120=



000
FTUS43 KDDC 022320
TAFDDC
TAF
KDDC 022320Z 0300/0324 VRB06KT P6SM SCT120=



000
FTUS43 KDDC 022320
TAFHYS
TAF
KHYS 022320Z 0300/0324 VRB06KT P6SM SCT120=



000
FTUS43 KDDC 022218 AAB
TAFGCK
TAF AMD
KGCK 022218Z 0222/0318 VRB10KT P6SM VCTS BKN080CB
     FM022300 11010KT P6SM BKN100
     FM030200 05008KT P6SM BKN150=



000
FTUS43 KDDC 022134 AAA
TAFGCK
TAF AMD
KGCK 022134Z 0222/0318 VRB15G30KT 5SM TSRA OVC060CB
     FM022300 09013G22KT P6SM VCTS BKN080CB
     FM030200 05008KT P6SM BKN150=



000
FTUS43 KDDC 022134 AAA
TAFGCK
TAF AMD
KGCK 022134Z 0222/0318 VRB15G30KT 5SM TSRA OVC060CB
     FM022300 09013G22KT P6SM VCTS BKN080CB
     FM030200 05008KT P6SM BKN150=



000
FTUS43 KDDC 022134 AAA
TAFGCK
TAF AMD
KGCK 022134Z 0222/0318 VRB15G30KT 5SM TSRA OVC060CB
     FM022300 09013G22KT P6SM VCTS BKN080CB
     FM030200 05008KT P6SM BKN150=



000
FTUS43 KDDC 021734
TAFHYS
TAF
KHYS 021734Z 0218/0318 VRB06KT P6SM -TSRA SCT040CB BKN140
      TEMPO 0218/0219 34015G25KT 3SM -TSRA OVC030CB
     FM022000 04008KT P6SM SCT120=



000
FTUS43 KDDC 021734
TAFGCK
TAF
KGCK 021734Z 0218/0318 04012KT P6SM VCTS SCT040 BKN080CB
     FM030200 05008KT P6SM BKN150=



000
FTUS43 KDDC 021734
TAFDDC
TAF
KDDC 021734Z 0218/0318 04011KT P6SM VCTS SCT040CB BKN110
     FM030200 05008KT P6SM BKN150=



000
FTUS43 KDDC 021734
TAFGCK
TAF
KGCK 021734Z 0218/0318 04012KT P6SM VCTS SCT040 BKN080CB
     FM030200 05008KT P6SM BKN150=



000
FTUS43 KDDC 021734
TAFDDC
TAF
KDDC 021734Z 0218/0318 04011KT P6SM VCTS SCT040CB BKN110
     FM030200 05008KT P6SM BKN150=



000
FTUS43 KDDC 021734
TAFHYS
TAF
KHYS 021734Z 0218/0318 VRB06KT P6SM -TSRA SCT040CB BKN140
      TEMPO 0218/0219 34015G25KT 3SM -TSRA OVC030CB
     FM022000 04008KT P6SM SCT120=



000
FTUS43 KDDC 021504 AAB
TAFHYS
TAF AMD
KHYS 021504Z 0215/0312 36007KT P6SM SCT040 BKN140
     FM021800 36010KT P6SM VCTS BKN035CB
     FM022000 11008KT P6SM SCT050 BKN150=



000
FTUS43 KDDC 021504 AAB
TAFHYS
TAF AMD
KHYS 021504Z 0215/0312 36007KT P6SM SCT040 BKN140
     FM021800 36010KT P6SM VCTS BKN035CB
     FM022000 11008KT P6SM SCT050 BKN150=



000
FTUS43 KDDC 021343 AAA
TAFHYS
TAF AMD
KHYS 021343Z 0214/0312 33015G22KT P6SM -TSRA BKN009CB
     FM021600 36010KT P6SM VCTS BKN035CB
     FM022000 11008KT P6SM SCT050 BKN150=



000
FTUS43 KDDC 021343 AAA
TAFHYS
TAF AMD
KHYS 021343Z 0214/0312 33015G22KT P6SM -TSRA BKN009CB
     FM021600 36010KT P6SM VCTS BKN035CB
     FM022000 11008KT P6SM SCT050 BKN150=



000
FTUS43 KDDC 021144 CCA
TAFHYS
TAF COR
KHYS 021144Z 0212/0312 06008KT P6SM BKN009
     FM021400 VRB20G30KT P6SM -TSRA FEW019 BKN035CB
     FM021600 03010KT P6SM VCTS BKN050CB
     FM022000 11008KT P6SM SCT050 BKN150=



000
FTUS43 KDDC 021144 CCA
TAFHYS
TAF COR
KHYS 021144Z 0212/0312 06008KT P6SM BKN009
     FM021400 VRB20G30KT P6SM -TSRA FEW019 BKN035CB
     FM021600 03010KT P6SM VCTS BKN050CB
     FM022000 11008KT P6SM SCT050 BKN150=



000
FTUS43 KDDC 021144 CCA
TAFHYS
TAF COR
KHYS 021144Z 0212/0312 06008KT P6SM BKN009
     FM021400 VRB20G30KT P6SM -TSRA FEW019 BKN035CB
     FM021600 03010KT P6SM VCTS BKN050CB
     FM022000 11008KT P6SM SCT050 BKN150=



000
FTUS43 KDDC 021120
TAFDDC
TAF
KDDC 021120Z 0212/0312 03008KT P6SM SCT080 BKN110
     FM022000 12012KT P6SM VCTS BKN050CB
     FM030100 11008KT P6SM SCT050 BKN150=



000
FTUS43 KDDC 021120
TAFGCK
TAF
KGCK 021120Z 0212/0312 03008KT P6SM VCTS BKN080CB
     FM021500 05010KT P6SM SCT080 BKN120
     FM021800 12012KT P6SM VCTS BKN050CB
     FM022300 11008KT P6SM SCT050 BKN150=



000
FTUS43 KDDC 021120
TAFHYS
TAF
KHYS 021120Z 0212/0312 03008KT P6SM BKN010
     FM021500 VRB20G30KT P6SM -TSRA FEW019 BKN035CB
     FM021800 03010KT P6SM VCTS BKN050CB
     FM022000 11008KT P6SM SCT050 BKN150=



000
FTUS43 KDDC 021120
TAFDDC
TAF
KDDC 021120Z 0212/0312 03008KT P6SM SCT080 BKN110
     FM022000 12012KT P6SM VCTS BKN050CB
     FM030100 11008KT P6SM SCT050 BKN150=



000
FTUS43 KDDC 021120
TAFHYS
TAF
KHYS 021120Z 0212/0312 03008KT P6SM BKN010
     FM021500 VRB20G30KT P6SM -TSRA FEW019 BKN035CB
     FM021800 03010KT P6SM VCTS BKN050CB
     FM022000 11008KT P6SM SCT050 BKN150=



000
FTUS43 KDDC 021120
TAFDDC
TAF
KDDC 021120Z 0212/0312 03008KT P6SM SCT080 BKN110
     FM022000 12012KT P6SM VCTS BKN050CB
     FM030100 11008KT P6SM SCT050 BKN150=



000
FTUS43 KDDC 021120
TAFGCK
TAF
KGCK 021120Z 0212/0312 03008KT P6SM VCTS BKN080CB
     FM021500 05010KT P6SM SCT080 BKN120
     FM021800 12012KT P6SM VCTS BKN050CB
     FM022300 11008KT P6SM SCT050 BKN150=



000
FTUS43 KDDC 020520
TAFDDC
TAF
KDDC 020520Z 0206/0306 VRB05KT P6SM SCT200
     FM021500 12012KT P6SM SCT060 PROB30 0218/0224 VRB20G30KT -TSRA
      OVC030CB=



000
FTUS43 KDDC 020520
TAFDDC
TAF
KDDC 020520Z 0206/0306 VRB05KT P6SM SCT200
     FM021500 12012KT P6SM SCT060 PROB30 0218/0224 VRB20G30KT -TSRA
      OVC030CB=



000
FTUS43 KDDC 020520
TAFHYS
TAF
KHYS 020520Z 0206/0306 VRB05KT P6SM SCT200
     FM021500 12012KT P6SM SCT060 PROB30 0218/0224 VRB20G30KT -TSRA
      OVC030CB=



000
FTUS43 KDDC 020520
TAFGCK
TAF
KGCK 020520Z 0206/0306 VRB05KT P6SM SCT200
     FM021500 12012KT P6SM SCT060 PROB30 0218/0224 VRB20G30KT -TSRA
      OVC030CB=



000
FTUS43 KDDC 020520
TAFHYS
TAF
KHYS 020520Z 0206/0306 VRB05KT P6SM SCT200
     FM021500 12012KT P6SM SCT060 PROB30 0218/0224 VRB20G30KT -TSRA
      OVC030CB=



000
FTUS43 KDDC 020520
TAFGCK
TAF
KGCK 020520Z 0206/0306 VRB05KT P6SM SCT200
     FM021500 12012KT P6SM SCT060 PROB30 0218/0224 VRB20G30KT -TSRA
      OVC030CB=



000
FTUS43 KDDC 012332
TAFGCK
TAF
KGCK 012332Z 0200/0224 06012KT P6SM SKC
     FM020200 VRB05KT P6SM SCT200
     FM021500 12012KT P6SM SCT060 PROB30 0218/0224 VRB20G30KT -TSRA
      OVC030CB=



000
FTUS43 KDDC 012332
TAFDDC
TAF
KDDC 012332Z 0200/0224 06012KT P6SM SKC
     FM020200 VRB05KT P6SM SCT200
     FM021500 12012KT P6SM SCT060 PROB30 0218/0224 VRB20G30KT -TSRA
      OVC030CB=



000
FTUS43 KDDC 012332
TAFHYS
TAF
KHYS 012332Z 0200/0224 06012KT P6SM SKC
     FM020200 VRB05KT P6SM SCT200
     FM021500 12012KT P6SM SCT060 PROB30 0218/0224 VRB20G30KT -TSRA
      OVC030CB=



000
FTUS43 KDDC 012332
TAFDDC
TAF
KDDC 012332Z 0200/0224 06012KT P6SM SKC
     FM020200 VRB05KT P6SM SCT200
     FM021500 12012KT P6SM SCT060 PROB30 0218/0224 VRB20G30KT -TSRA
      OVC030CB=



000
FTUS43 KDDC 012332
TAFHYS
TAF
KHYS 012332Z 0200/0224 06012KT P6SM SKC
     FM020200 VRB05KT P6SM SCT200
     FM021500 12012KT P6SM SCT060 PROB30 0218/0224 VRB20G30KT -TSRA
      OVC030CB=



000
FTUS43 KDDC 012332
TAFGCK
TAF
KGCK 012332Z 0200/0224 06012KT P6SM SKC
     FM020200 VRB05KT P6SM SCT200
     FM021500 12012KT P6SM SCT060 PROB30 0218/0224 VRB20G30KT -TSRA
      OVC030CB=



000
FTUS43 KDDC 011720
TAFHYS
TAF
KHYS 011720Z 0118/0218 01014G23KT P6SM BKN100
     FM012300 06008KT P6SM BKN150
     FM020500 11008KT P6SM BKN100
     FM021000 09006KT P6SM VCTS BKN070CB=



000
FTUS43 KDDC 011720
TAFGCK
TAF
KGCK 011720Z 0118/0218 01013G21KT P6SM BKN100
     FM012300 06008KT P6SM BKN150
     FM020500 11008KT P6SM BKN100
     FM021700 06012KT P6SM VCTS BKN070CB=



000
FTUS43 KDDC 011720
TAFDDC
TAF
KDDC 011720Z 0118/0218 35013G21KT P6SM BKN100
     FM012100 02015G23KT P6SM BKN150
     FM012300 06008KT P6SM BKN150
     FM020500 11008KT P6SM BKN100
     FM021700 06012KT P6SM VCTS BKN070CB=



000
FTUS43 KDDC 011720
TAFDDC
TAF
KDDC 011720Z 0118/0218 35013G21KT P6SM BKN100
     FM012100 02015G23KT P6SM BKN150
     FM012300 06008KT P6SM BKN150
     FM020500 11008KT P6SM BKN100
     FM021700 06012KT P6SM VCTS BKN070CB=



000
FTUS43 KDDC 011720
TAFHYS
TAF
KHYS 011720Z 0118/0218 01014G23KT P6SM BKN100
     FM012300 06008KT P6SM BKN150
     FM020500 11008KT P6SM BKN100
     FM021000 09006KT P6SM VCTS BKN070CB=



000
FTUS43 KDDC 011720
TAFGCK
TAF
KGCK 011720Z 0118/0218 01013G21KT P6SM BKN100
     FM012300 06008KT P6SM BKN150
     FM020500 11008KT P6SM BKN100
     FM021700 06012KT P6SM VCTS BKN070CB=



000
FTUS43 KDDC 011120
TAFGCK
TAF
KGCK 011120Z 0112/0212 24010KT P6SM BKN150
     FM011400 28015G22KT P6SM BKN150
     FM011700 33015G22KT P6SM BKN150
     FM012300 09010KT P6SM BKN100=



000
FTUS43 KDDC 011120
TAFGCK
TAF
KGCK 011120Z 0112/0212 24010KT P6SM BKN150
     FM011400 28015G22KT P6SM BKN150
     FM011700 33015G22KT P6SM BKN150
     FM012300 09010KT P6SM BKN100=



000
FTUS43 KDDC 011120
TAFHYS
TAF
KHYS 011120Z 0112/0212 25012G18KT P6SM BKN120
     FM011400 30015G22KT P6SM BKN120
     FM011800 36015G22KT P6SM BKN120
     FM012200 04010KT P6SM SCT120=



000
FTUS43 KDDC 011120
TAFGCK
TAF
KGCK 011120Z 0112/0212 24010KT P6SM BKN150
     FM011400 28015G22KT P6SM BKN150
     FM011700 33015G22KT P6SM BKN150
     FM012300 09010KT P6SM BKN100=



000
FTUS43 KDDC 011120
TAFDDC
TAF
KDDC 011120Z 0112/0212 24011KT P6SM SKC
     FM011300 25012G20KT P6SM BKN150
     FM011700 33015G22KT P6SM BKN150
     FM020000 03008KT P6SM BKN100=



000
FTUS43 KDDC 011120
TAFHYS
TAF
KHYS 011120Z 0112/0212 25012G18KT P6SM BKN120
     FM011400 30015G22KT P6SM BKN120
     FM011800 36015G22KT P6SM BKN120
     FM012200 04010KT P6SM SCT120=



000
FTUS43 KDDC 011120
TAFHYS
TAF
KHYS 011120Z 0112/0212 25012G18KT P6SM BKN120
     FM011400 30015G22KT P6SM BKN120
     FM011800 36015G22KT P6SM BKN120
     FM012200 04010KT P6SM SCT120=



000
FTUS43 KDDC 011120
TAFDDC
TAF
KDDC 011120Z 0112/0212 24011KT P6SM SKC
     FM011300 25012G20KT P6SM BKN150
     FM011700 33015G22KT P6SM BKN150
     FM020000 03008KT P6SM BKN100=



000
FTUS43 KDDC 011120
TAFHYS
TAF
KHYS 011120Z 0112/0212 25012G18KT P6SM BKN120
     FM011400 30015G22KT P6SM BKN120
     FM011800 36015G22KT P6SM BKN120
     FM012200 04010KT P6SM SCT120=



000
FTUS43 KDDC 011120
TAFDDC
TAF
KDDC 011120Z 0112/0212 24011KT P6SM SKC
     FM011300 25012G20KT P6SM BKN150
     FM011700 33015G22KT P6SM BKN150
     FM020000 03008KT P6SM BKN100=



000
FTUS43 KDDC 011120
TAFGCK
TAF
KGCK 011120Z 0112/0212 24010KT P6SM BKN150
     FM011400 28015G22KT P6SM BKN150
     FM011700 33015G22KT P6SM BKN150
     FM012300 09010KT P6SM BKN100=



000
FTUS43 KDDC 011120
TAFDDC
TAF
KDDC 011120Z 0112/0212 24011KT P6SM SKC
     FM011300 25012G20KT P6SM BKN150
     FM011700 33015G22KT P6SM BKN150
     FM020000 03008KT P6SM BKN100=



000
FTUS43 KDDC 010520
TAFHYS
TAF
KHYS 010520Z 0106/0206 23008KT P6SM SKC
     FM011800 05010KT P6SM SCT120=



000
FTUS43 KDDC 010520
TAFHYS
TAF
KHYS 010520Z 0106/0206 23008KT P6SM SKC
     FM011800 05010KT P6SM SCT120=



000
FTUS43 KDDC 010520
TAFHYS
TAF
KHYS 010520Z 0106/0206 23008KT P6SM SKC
     FM011800 05010KT P6SM SCT120=



000
FTUS43 KDDC 010520
TAFHYS
TAF
KHYS 010520Z 0106/0206 23008KT P6SM SKC
     FM011800 05010KT P6SM SCT120=



000
FTUS43 KDDC 010520
TAFGCK
TAF
KGCK 010520Z 0106/0206 21009KT P6SM SKC
     FM011400 24012KT P6SM BKN150
     FM012100 09010KT P6SM BKN100=



000
FTUS43 KDDC 010520
TAFDDC
TAF
KDDC 010520Z 0106/0206 20012KT P6SM SKC
     FM011400 24012KT P6SM BKN150
     FM020000 09008KT P6SM BKN100=



000
FTUS43 KDDC 010520
TAFDDC
TAF
KDDC 010520Z 0106/0206 20012KT P6SM SKC
     FM011400 24012KT P6SM BKN150
     FM020000 09008KT P6SM BKN100=



000
FTUS43 KDDC 010520
TAFGCK
TAF
KGCK 010520Z 0106/0206 21009KT P6SM SKC
     FM011400 24012KT P6SM BKN150
     FM012100 09010KT P6SM BKN100=



000
FTUS43 KDDC 010520
TAFDDC
TAF
KDDC 010520Z 0106/0206 20012KT P6SM SKC
     FM011400 24012KT P6SM BKN150
     FM020000 09008KT P6SM BKN100=



000
FTUS43 KDDC 010520
TAFGCK
TAF
KGCK 010520Z 0106/0206 21009KT P6SM SKC
     FM011400 24012KT P6SM BKN150
     FM012100 09010KT P6SM BKN100=



000
FTUS43 KDDC 010520
TAFDDC
TAF
KDDC 010520Z 0106/0206 20012KT P6SM SKC
     FM011400 24012KT P6SM BKN150
     FM020000 09008KT P6SM BKN100=



000
FTUS43 KDDC 010520
TAFGCK
TAF
KGCK 010520Z 0106/0206 21009KT P6SM SKC
     FM011400 24012KT P6SM BKN150
     FM012100 09010KT P6SM BKN100=



000
FTUS43 KDDC 302320
TAFGCK
TAF
KGCK 302320Z 0100/0124 20012KT P6SM SKC
     FM011400 25012KT P6SM SCT250
     FM011800 VRB05KT P6SM SCT250=



000
FTUS43 KDDC 302320
TAFDDC
TAF
KDDC 302320Z 0100/0124 20012KT P6SM SKC
     FM011400 25012KT P6SM SCT250
     FM011800 VRB05KT P6SM SCT250=



000
FTUS43 KDDC 302320
TAFGCK
TAF
KGCK 302320Z 0100/0124 20012KT P6SM SKC
     FM011400 25012KT P6SM SCT250
     FM011800 VRB05KT P6SM SCT250=



000
FTUS43 KDDC 302320
TAFDDC
TAF
KDDC 302320Z 0100/0124 20012KT P6SM SKC
     FM011400 25012KT P6SM SCT250
     FM011800 VRB05KT P6SM SCT250=



000
FTUS43 KDDC 302320
TAFHYS
TAF
KHYS 302320Z 0100/0124 22012KT P6SM SKC
     FM011800 VRB05KT P6SM SCT250=



000
FTUS43 KDDC 302320
TAFHYS
TAF
KHYS 302320Z 0100/0124 22012KT P6SM SKC
     FM011800 VRB05KT P6SM SCT250=



    US Dept of Commerce
    National Oceanic and Atmospheric Administration
    National Weather Service
    1325 East West Highway
    Silver Spring, MD 20910
    Page Author: NWS Internet Services Team
Disclaimer
Information Quality
Credits
Glossary
Privacy Policy
Freedom of Information Act (FOIA)
About Us
Career Opportunities